x

West Dixon Entrance (46205) Wave Buoy

6:00pm - Tue 23rd May 2017 All times are PDT. -7 hours from GMT.

  • Sig Wave height 8.5ft
  • Peak Period 6s
  • Wind
    27mph, 31mph gusts
  • Sea Temp 48°f
  • Air Temp 49°f
  • Sea Pressure 1019.8mb
  • West Dixon Entrance
  • West Dixon Entrance

More Historic Weather Station data

Upgrade to MSW Pro to gain access to the past 30 days of data for over 8000 Wavebouys and Weather Stations around the globe.

Join Pro

Comparision Forecast

View Surf forecast
   
Tue 05/23 6:00pm 8.5ft 6s 27 31 mph 1019.8mb 48f 49f
5:00pm 8ft 7s 25 34 mph 1019.2mb 48f 49f
4:00pm 7.5ft 8s 27 31 mph 1018mb 48f 49f
3:00pm 7.5ft 10s 25 31 mph 1016.9mb 48f 49f
2:00pm 7ft 10s 20 22 mph 1015.6mb 48f 49f
1:00pm 6ft 10s 20 25 mph 1014mb 48f 48f
12:00pm 5.5ft 10s 16 18 mph 1013mb 48f 48f
11:00am 5.5ft 11s 11 13 mph 1011.9mb 48f 48f
10:00am 5ft 10s 13 18 mph 1010.7mb 48f 47f
9:00am 5.5ft 10s 9 13 mph 1010.2mb 48f 47f
8:00am 6ft 10s 13 18 mph 1009.8mb 48f 47f
7:00am 6ft 10s 13 16 mph 1009.6mb 48f 47f
6:00am 6ft 10s 16 20 mph 1009.6mb 48f 47f
5:00am 6.5ft 11s 11 13 mph 1009.8mb 48f 48f
4:00am 7ft 10s 13 16 mph 1010.3mb 48f 48f
3:00am 7ft 10s 11 16 mph 1010.6mb 48f 48f
2:00am 6ft 11s 13 16 mph 1011.3mb 48f 48f
1:00am 6.5ft 11s 9 11 mph 1012mb 48f 48f
12:00am 6ft 11s 9 13 mph 1012.9mb 48f 48f
Mon 05/22 11:00pm 7ft 11s 9 11 mph 1013.3mb 48f 48f
10:00pm 7ft 12s 9 11 mph 1013.6mb 49f 48f
9:00pm 6ft 11s 7 9 mph 1014mb 48f 48f
8:00pm 7.5ft 12s 9 9 mph 1014.9mb 48f 48f
7:00pm 7.5ft 11s 9 11 mph 1015.5mb 48f 48f
6:00pm 7.5ft 12s 11 13 mph 1015.9mb 48f 48f
5:00pm 8ft 12s 9 9 mph 1016.5mb 48f 48f
4:00pm 9ft 12s 7 9 mph 1017.3mb 48f 48f
3:00pm 8ft 11s 7 9 mph 1017.6mb 48f 48f
2:00pm 8ft 11s 9 11 mph 1017.7mb 48f 48f
1:00pm 9ft 12s 9 11 mph 1017.9mb 48f 48f
12:00pm 9ft 10s 9 11 mph 1018mb 48f 48f
11:00am 9ft 11s 9 11 mph 1017.7mb 48f 48f
10:00am 9ft 12s 9 13 mph 1018.4mb 48f 48f
9:00am 9ft 11s 9 11 mph 1018.6mb 48f 48f
8:00am 9ft 11s 9 11 mph 1018.4mb 48f 48f
7:00am 9ft 11s 7 9 mph 1018.7mb 48f 48f
6:00am 9.5ft 11s 7 9 mph 1019.1mb 48f 48f
5:00am 10ft 11s 9 11 mph 1019.4mb 48f 48f
4:00am 10ft 10s 9 11 mph 1019.6mb 48f 48f
3:00am 10.5ft 11s 9 9 mph 1020.3mb 48f 48f
2:00am 11ft 11s 11 13 mph 1020.2mb 48f 48f
1:00am 11ft 10s 13 18 mph 1020.4mb 48f 48f
12:00am 11.5ft 10s 11 13 mph 1020.9mb 48f 48f
Sun 05/21 11:00pm 11.5ft 10s 13 18 mph 1020.7mb 48f 49f
10:00pm 11.5ft 10s 16 18 mph 1020.5mb 48f 49f
9:00pm 11.5ft 11s 16 18 mph 1020.2mb 48f 49f
8:00pm 12ft 11s 16 18 mph 1020mb 48f 49f
7:00pm 12.5ft 10s 16 20 mph 1020.2mb 48f 49f
6:00pm 12ft 10s 18 22 mph 1019.9mb 48f 49f
5:00pm 11ft 10s 18 25 mph 1019.4mb 48f 49f
4:00pm 12.5ft 10s 18 22 mph 1019.2mb 48f 49f
3:00pm 12.5ft 8s 20 27 mph 1018.8mb 48f 49f
2:00pm 13.5ft 9s 22 27 mph 1018mb 48f 49f
1:00pm 13.5ft 10s 25 29 mph 1017.2mb 48f 49f
12:00pm 12ft 10s 27 34 mph 1016.8mb 48f 50f
11:00am 14ft 10s 29 34 mph 1015.9mb 48f 50f
10:00am 12.5ft 8s 29 36 mph 1015.2mb 48f 50f
9:00am 13ft 9s 31 38 mph 1014.4mb 48f 50f
8:00am 13.5ft 8s 34 40 mph 1013.9mb 48f 50f
7:00am 13ft 9s 31 38 mph 1014mb 47f 50f
6:00am 13ft 9s 31 38 mph 1013.9mb 47f 49f
5:00am 12.5ft 8s 31 38 mph 1014.3mb 47f 50f
4:00am 11.5ft 8s 29 36 mph 1014.6mb 47f 50f
3:00am 12.5ft 8s 29 40 mph 1014.7mb 47f 50f
2:00am 12.5ft 8s 29 36 mph 1014.6mb 47f 50f
1:00am 11ft 8s 29 36 mph 1014.4mb 47f 49f
12:00am 11ft 8s 27 31 mph 1014.8mb 47f 49f
Sat 05/20 11:00pm 10.5ft 8s 25 31 mph 1015.1mb 47f 49f
10:00pm 10ft 8s 27 31 mph 1015.1mb 47f 49f
9:00pm 10.5ft 8s 27 34 mph 1014.7mb 47f 49f
8:00pm 11ft 8s 27 31 mph 1014.6mb 47f 49f
7:00pm 11.5ft 8s 29 36 mph 1014.6mb 47f 50f
6:00pm 11ft 8s 29 36 mph 1014.7mb 47f 50f
5:00pm 11ft 8s 29 36 mph 1015mb 47f 50f
4:00pm 11ft 7s 31 40 mph 1015mb 47f 49f
3:00pm 10ft 7s 31 36 mph 1015.4mb 48f 49f
2:00pm 9ft 7s 31 38 mph 1015.8mb 48f 49f
1:00pm 8ft 7s 31 38 mph 1016mb 48f 49f
12:00pm 6ft 6s 29 38 mph 1016.1mb 48f 49f
11:00am 5.5ft 8s 27 31 mph 1016.4mb 47f 49f
10:00am 4.5ft 9s 22 27 mph 1017.4mb 48f 49f
9:00am 4ft 8s 20 22 mph 1017.8mb 48f 49f
8:00am 4ft 9s 20 22 mph 1018.2mb 48f 49f
7:00am 4ft 8s 18 20 mph 1019mb 48f 49f
6:00am 4ft 8s 13 18 mph 1019.6mb 48f 49f
5:00am 4ft 9s 13 16 mph 1019.9mb 48f 49f
4:00am 4.5ft 11s 11 13 mph 1020.5mb 48f 49f
3:00am 4.5ft 10s 11 13 mph 1020.7mb 48f 49f